Hauptseite
METAR-TAF:

METAR-TAF

Flughäfen :

RAF Scampton

Scampton, England

Breite: 53-18-27N, Länge: 000-33-03W, Höhe: 62 m

Beobachtung

Neuester Wetterbericht von vor 43 Minuten, um 16:50 UTC
Wind 8 kt aus West/Nordwest
Temperatur 19°C
Luftfeuchtigkeit 40%
Luftdruck 1026 hPa
Sichtweite 10 km oder mehr

METAR: EGXP 231650Z AUTO 30008KT 9999 // FEW200/// 19/05 Q1026

Zeit: 18:33 (17:33 UTC)

Prognose

Neuester Wetterbericht von vor 10 Stunden und 16 Minuten, um 07:17 UTC
Gültige Prognose vom 23 um 09 UTC bis 23 um 15 UTC
Wind 8 kt aus West/Nordwest
Sichtweite 10 km oder mehr
keine Wolken unter 1500 m und keine Kumulonimbus oder Gewitterwolken

TAF: EGXP 230717Z 2309/2315 29008KT CAVOK

Wetterbeobachtungen und Prognosen von mehr als 4000 Flughäfen (METAR und TAF Bericht).

Die verfügbaren Stationen werden durch gelbe und rote Markierungen auf der Karte dargestellt.

Führen Sie die Maus auf sie, um den Namen der Station zu sehen.

Darauf klicken, um die Beobachtung von Wetterbeobachtungen und Prognosen zu sehen.

Um die Karte zu ändern : klicken Sie auf den grünen Tasten mit einem schwarzen Kreuz Zum Vergrößern, auf den grünen Button mit einem Gedankenstrich zu verkleinern, oder auf die grünen Pfeile für benachbarte Karten.


METAR-TAF: